Time;durP1;ratioP1;P1;durP2;ratioP2;P2;SDS_P1;SDS_P2;PMS_P1;PMS_P2;Temp;Humidity;BMP_temperature;BMP_pressure;BME280_temperature;BME280_humidity;BME280_pressure;Samples;Min_cycle;Max_cycle;Signal;HPM_P1;HPM_P2
2021/04/17 00:00:30;;;;;;;11.68;8.27;;;8.20;99.90;;;;;;5037727;28;20065;-79
2021/04/17 00:02:57;;;;;;;13.27;8.20;;;8.30;99.90;;;;;;5040009;28;20104;-78
2021/04/17 00:05:23;;;;;;;11.07;8.07;;;8.30;99.90;;;;;;5039690;28;20073;-78
2021/04/17 00:07:51;;;;;;;10.05;7.40;;;8.30;99.90;;;;;;5038143;28;20049;-78
2021/04/17 00:10:18;;;;;;;11.38;8.02;;;8.30;99.90;;;;;;5036597;28;20081;-77
2021/04/17 00:12:45;;;;;;;14.10;8.27;;;8.30;99.90;;;;;;5034832;28;20088;-77
2021/04/17 00:15:12;;;;;;;13.02;8.10;;;8.30;99.90;;;;;;5036251;28;20053;-78
2021/04/17 00:17:39;;;;;;;11.45;8.75;;;8.30;99.90;;;;;;5041141;28;20088;-78
2021/04/17 00:20:06;;;;;;;12.10;8.02;;;8.20;99.90;;;;;;5040427;28;20053;-78
2021/04/17 00:22:33;;;;;;;12.85;8.38;;;8.20;99.90;;;;;;5040658;28;20124;-78
2021/04/17 00:24:59;;;;;;;14.00;8.70;;;8.10;99.90;;;;;;5039253;28;20053;-78
2021/04/17 00:27:26;;;;;;;10.70;8.20;;;8.10;99.90;;;;;;5038091;28;20057;-78
2021/04/17 00:29:53;;;;;;;11.13;8.52;;;8.10;99.90;;;;;;5036826;28;20139;-77
2021/04/17 00:32:20;;;;;;;13.15;8.57;;;8.00;99.90;;;;;;5036856;28;20072;-77
2021/04/17 00:34:46;;;;;;;10.23;8.63;;;8.10;99.90;;;;;;5036877;28;20224;-77
2021/04/17 00:37:13;;;;;;;12.07;8.57;;;8.00;99.90;;;;;;5036682;28;20132;-78
2021/04/17 00:39:39;;;;;;;11.15;8.40;;;8.00;99.90;;;;;;5036882;28;20053;-78
2021/04/17 00:42:07;;;;;;;16.05;9.13;;;7.90;99.90;;;;;;5036182;28;20132;-78
2021/04/17 00:44:35;;;;;;;12.63;9.00;;;7.90;99.90;;;;;;5036116;28;20160;-77
2021/04/17 00:47:03;;;;;;;12.35;9.00;;;7.80;99.90;;;;;;5035266;28;20072;-77
2021/04/17 00:49:30;;;;;;;12.88;9.02;;;7.70;99.90;;;;;;5035486;28;20064;-77
2021/04/17 00:51:57;;;;;;;11.25;8.98;;;7.60;99.90;;;;;;5035663;28;20132;-77
2021/04/17 00:54:23;;;;;;;12.48;9.13;;;7.60;99.90;;;;;;5036168;28;20543;-77
2021/04/17 00:56:49;;;;;;;14.05;9.10;;;7.60;99.90;;;;;;5036036;28;20144;-77
2021/04/17 00:59:16;;;;;;;12.52;8.98;;;7.60;99.90;;;;;;5036099;28;20136;-76
2021/04/17 01:01:43;;;;;;;15.45;8.90;;;7.50;99.90;;;;;;5035213;28;20076;-77
2021/04/17 01:04:19;;;;;;;11.10;8.57;;;7.50;99.90;;;;;;5034237;28;20057;-77
2021/04/17 01:06:52;;;;;;;14.68;9.30;;;7.50;99.90;;;;;;5034483;28;20144;-76
2021/04/17 01:09:22;;;;;;;;;;;7.50;99.90;;;;;;5035268;28;20049;-77
2021/04/17 01:12:05;;;;;;;11.27;8.23;;;7.50;99.90;;;;;;5034913;28;20040;-77
2021/04/17 01:14:32;;;;;;;16.45;9.43;;;7.40;99.90;;;;;;5036915;28;20136;-77
2021/04/17 01:17:00;;;;;;;14.35;9.38;;;7.30;99.90;;;;;;5037731;28;20081;-77
2021/04/17 01:19:43;;;;;;;13.45;9.43;;;7.30;99.90;;;;;;5040479;28;20132;-78
2021/04/17 01:22:10;;;;;;;14.30;10.55;;;7.20;99.90;;;;;;5039972;28;20105;-77
2021/04/17 01:24:39;;;;;;;12.63;9.55;;;7.20;99.90;;;;;;5039731;28;20076;-77
2021/04/17 01:27:07;;;;;;;14.32;9.98;;;7.10;99.90;;;;;;5039184;28;20128;-77
2021/04/17 01:29:35;;;;;;;14.02;9.70;;;7.10;99.90;;;;;;5037914;28;20140;-78
2021/04/17 01:32:02;;;;;;;14.90;9.48;;;7.00;99.90;;;;;;5035285;28;20524;-76
2021/04/17 01:34:29;;;;;;;13.90;9.50;;;6.90;99.90;;;;;;5036344;28;20049;-78
2021/04/17 01:36:57;;;;;;;15.00;9.43;;;6.90;99.90;;;;;;5035386;28;20136;-78
2021/04/17 01:39:26;;;;;;;14.40;9.90;;;6.80;99.90;;;;;;5035668;28;20109;-78
2021/04/17 01:41:55;;;;;;;15.60;9.63;;;6.80;99.90;;;;;;5035797;28;20132;-78
2021/04/17 01:44:25;;;;;;;16.17;9.68;;;6.80;99.90;;;;;;5035144;28;20053;-77
2021/04/17 01:46:56;;;;;;;12.85;9.57;;;6.80;99.90;;;;;;5035397;28;20080;-78
2021/04/17 01:49:25;;;;;;;15.15;9.52;;;6.80;99.90;;;;;;5035606;28;20084;-78
2021/04/17 01:51:53;;;;;;;14.90;9.77;;;6.80;99.90;;;;;;5036215;28;20128;-78
2021/04/17 01:54:21;;;;;;;12.85;9.65;;;6.70;99.90;;;;;;5035056;28;20053;-77
2021/04/17 01:56:49;;;;;;;15.50;10.15;;;6.70;99.90;;;;;;5034182;28;20136;-78
2021/04/17 01:59:20;;;;;;;13.43;9.00;;;6.60;99.90;;;;;;5034106;28;20081;-78
2021/04/17 02:01:48;;;;;;;16.23;9.63;;;6.60;99.90;;;;;;5034387;28;20513;-77
2021/04/17 02:04:15;;;;;;;12.75;9.13;;;6.60;99.90;;;;;;5035122;28;20104;-78
2021/04/17 02:06:41;;;;;;;13.05;9.88;;;6.50;99.90;;;;;;5034182;28;20136;-77
2021/04/17 02:09:08;;;;;;;15.75;10.00;;;6.50;99.90;;;;;;5037144;28;20049;-78
2021/04/17 02:11:34;;;;;;;14.15;9.77;;;6.40;99.90;;;;;;5036949;28;20180;-78
2021/04/17 02:14:01;;;;;;;16.00;10.30;;;6.40;99.90;;;;;;5034456;28;20462;-76
2021/04/17 02:16:31;;;;;;;13.27;9.70;;;6.30;99.90;;;;;;5033555;28;20140;-76
2021/04/17 02:19:00;;;;;;;16.98;10.13;;;6.30;99.90;;;;;;5034936;28;20109;-78
2021/04/17 02:21:32;;;;;;;21.02;10.50;;;6.20;99.90;;;;;;5034849;28;20088;-77
2021/04/17 02:24:00;;;;;;;14.85;10.48;;;6.20;99.90;;;;;;5033256;28;20053;-77
2021/04/17 02:26:27;;;;;;;15.68;10.48;;;6.10;99.90;;;;;;5034305;28;20049;-77
2021/04/17 02:28:54;;;;;;;13.75;9.90;;;6.10;99.90;;;;;;5033603;28;20071;-77
2021/04/17 02:31:20;;;;;;;13.80;9.35;;;6.10;99.90;;;;;;5032963;28;20053;-77
2021/04/17 02:33:48;;;;;;;15.00;9.50;;;6.10;99.90;;;;;;5032928;28;20046;-77
2021/04/17 02:36:15;;;;;;;13.38;9.10;;;6.10;99.90;;;;;;5036679;28;20136;-76
2021/04/17 02:38:41;;;;;;;12.82;9.25;;;6.10;99.90;;;;;;5037747;28;20158;-78
2021/04/17 02:41:08;;;;;;;12.35;9.43;;;6.00;99.90;;;;;;5039198;28;20132;-78
2021/04/17 02:43:34;;;;;;;15.57;9.23;;;6.00;99.90;;;;;;5039833;28;20132;-78
2021/04/17 02:46:01;;;;;;;14.40;9.30;;;6.00;99.90;;;;;;5039927;28;20053;-78
2021/04/17 02:48:27;;;;;;;15.00;9.25;;;6.00;99.90;;;;;;5038774;28;20081;-78
2021/04/17 02:50:54;;;;;;;11.35;8.80;;;6.00;99.90;;;;;;5041582;28;20046;-78
2021/04/17 02:53:21;;;;;;;13.65;9.38;;;6.00;99.90;;;;;;5041848;28;20144;-78
2021/04/17 02:55:47;;;;;;;12.63;8.73;;;6.00;99.90;;;;;;5042418;28;20145;-80
2021/04/17 02:58:14;;;;;;;13.98;9.27;;;6.00;99.90;;;;;;5039195;28;20132;-77
2021/04/17 03:00:40;;;;;;;13.40;9.48;;;6.00;99.90;;;;;;5038989;28;20578;-77
2021/04/17 03:03:06;;;;;;;14.20;9.52;;;5.90;99.90;;;;;;5039526;28;20105;-77
2021/04/17 03:05:33;;;;;;;13.15;9.10;;;5.90;99.90;;;;;;5043176;28;20104;-77
2021/04/17 03:07:59;;;;;;;14.45;8.90;;;5.80;99.90;;;;;;5042387;28;20144;-77
2021/04/17 03:10:27;;;;;;;12.45;9.15;;;5.80;99.90;;;;;;5041827;28;20053;-76
2021/04/17 03:12:53;;;;;;;11.77;8.65;;;5.80;99.90;;;;;;5041897;28;20045;-77
2021/04/17 03:15:23;;;;;;;14.45;9.25;;;5.70;99.90;;;;;;5042024;28;20076;-79
2021/04/17 03:17:49;;;;;;;14.18;9.88;;;5.70;99.90;;;;;;5039900;28;20083;-78
2021/04/17 03:20:16;;;;;;;13.45;8.75;;;5.70;99.90;;;;;;5042360;28;20189;-78
2021/04/17 03:22:42;;;;;;;15.85;9.32;;;5.70;99.90;;;;;;5039380;28;20128;-78
2021/04/17 03:25:11;;;;;;;13.48;8.63;;;5.60;99.90;;;;;;5039506;28;20117;-79
2021/04/17 03:27:40;;;;;;;16.35;9.30;;;5.60;99.90;;;;;;5039522;28;20053;-79
2021/04/17 03:30:09;;;;;;;13.70;9.25;;;5.50;99.90;;;;;;5039902;28;20076;-79
2021/04/17 03:32:36;;;;;;;13.50;9.32;;;5.50;99.90;;;;;;5039944;28;20117;-78
2021/04/17 03:35:03;;;;;;;14.80;10.18;;;5.50;99.90;;;;;;5039214;28;20133;-77
2021/04/17 03:37:29;;;;;;;13.43;9.40;;;5.50;99.90;;;;;;5037933;28;20063;-78
2021/04/17 03:39:56;;;;;;;13.68;9.45;;;5.50;99.90;;;;;;5037680;28;20084;-78
2021/04/17 03:42:22;;;;;;;12.85;9.75;;;5.50;99.90;;;;;;5037994;28;20109;-78
2021/04/17 03:44:49;;;;;;;14.40;9.63;;;5.50;99.90;;;;;;5037051;28;20136;-77
2021/04/17 03:47:16;;;;;;;12.20;9.18;;;5.40;99.90;;;;;;5037205;28;20053;-77
2021/04/17 03:49:48;;;;;;;13.73;8.63;;;5.40;99.90;;;;;;5079944;22;20064;-81
2021/04/17 03:52:22;;;;;;;11.50;8.47;;;5.40;99.90;;;;;;5064046;28;20088;-82
2021/04/17 03:54:49;;;;;;;12.25;8.73;;;5.40;99.90;;;;;;5065310;28;20295;-81
2021/04/17 03:57:21;;;;;;;17.67;9.77;;;5.40;99.90;;;;;;5065212;28;20057;-81
2021/04/17 03:59:55;;;;;;;14.80;9.15;;;5.40;99.90;;;;;;5065829;28;20505;-82
2021/04/17 04:02:31;;;;;;;11.98;9.13;;;5.40;99.90;;;;;;5067288;28;20052;-82
2021/04/17 04:05:05;;;;;;;14.98;9.00;;;5.40;99.90;;;;;;5068279;28;20044;-82
2021/04/17 04:07:31;;;;;;;15.48;9.68;;;5.40;99.90;;;;;;5064510;28;20049;-80
2021/04/17 04:09:58;;;;;;;12.52;8.48;;;5.30;99.90;;;;;;5062808;28;20489;-80
2021/04/17 04:12:24;;;;;;;15.82;9.10;;;5.30;99.90;;;;;;5064411;28;20052;-79
2021/04/17 04:14:52;;;;;;;14.13;9.30;;;5.30;99.90;;;;;;5066252;28;20144;-82
2021/04/17 04:17:18;;;;;;;15.48;9.10;;;5.30;99.90;;;;;;5070537;28;20183;-81
2021/04/17 04:19:44;;;;;;;14.32;9.52;;;5.30;99.90;;;;;;5071304;28;20052;-81
2021/04/17 04:22:11;;;;;;;14.48;8.90;;;5.20;99.90;;;;;;5070532;28;20033;-81
2021/04/17 04:24:37;;;;;;;13.00;8.60;;;5.20;99.90;;;;;;5065154;28;20064;-82
2021/04/17 04:27:05;;;;;;;14.23;8.50;;;5.20;99.90;;;;;;5059951;28;20158;-84
2021/04/17 04:29:31;;;;;;;16.00;8.90;;;5.20;99.90;;;;;;5058427;28;20182;-81
2021/04/17 04:31:58;;;;;;;13.32;9.13;;;5.20;99.90;;;;;;5057313;28;20041;-80
2021/04/17 04:34:26;;;;;;;15.55;9.00;;;5.10;99.90;;;;;;5057672;28;20128;-81
2021/04/17 04:36:52;;;;;;;15.15;9.15;;;5.10;99.90;;;;;;5056461;28;20076;-81
2021/04/17 04:39:18;;;;;;;16.25;9.10;;;5.00;99.90;;;;;;5061123;28;20509;-81
2021/04/17 04:41:45;;;;;;;14.40;9.65;;;4.90;99.90;;;;;;5062647;28;20063;-81
2021/04/17 04:44:11;;;;;;;14.30;9.45;;;4.90;99.90;;;;;;5056077;28;20489;-82
2021/04/17 04:46:37;;;;;;;13.77;9.05;;;4.90;99.90;;;;;;5056405;28;21126;-81
2021/04/17 04:49:05;;;;;;;17.40;9.18;;;4.80;99.90;;;;;;5054270;28;20450;-80
2021/04/17 04:51:31;;;;;;;13.82;9.77;;;4.80;99.90;;;;;;5054270;28;20091;-78
2021/04/17 04:53:57;;;;;;;15.98;9.93;;;4.70;99.90;;;;;;5055838;28;20052;-80
2021/04/17 04:56:24;;;;;;;17.25;9.02;;;4.70;99.90;;;;;;5056182;28;20091;-82
2021/04/17 04:58:50;;;;;;;13.45;9.00;;;4.70;99.90;;;;;;5055906;28;20139;-82
2021/04/17 05:01:17;;;;;;;13.45;8.90;;;4.70;99.90;;;;;;5057493;28;20397;-81
2021/04/17 05:03:43;;;;;;;12.25;8.70;;;4.70;99.90;;;;;;5056164;28;20049;-80
2021/04/17 05:06:11;;;;;;;13.73;8.95;;;4.70;99.90;;;;;;5055310;28;20052;-80
2021/04/17 05:08:37;;;;;;;14.45;9.38;;;4.70;99.90;;;;;;5055145;28;20204;-80
2021/04/17 05:11:04;;;;;;;13.50;9.45;;;4.80;99.90;;;;;;5056948;28;20136;-81
2021/04/17 05:13:30;;;;;;;15.88;9.35;;;4.80;99.90;;;;;;5058219;28;20191;-78
2021/04/17 05:15:56;;;;;;;15.75;9.30;;;4.80;99.90;;;;;;5058006;28;20052;-80
2021/04/17 05:18:23;;;;;;;17.27;9.20;;;4.80;99.90;;;;;;5058063;28;20152;-82
2021/04/17 05:20:49;;;;;;;15.50;8.73;;;4.80;99.90;;;;;;5059674;28;20164;-82
2021/04/17 05:23:17;;;;;;;14.65;9.68;;;4.90;99.90;;;;;;5058716;28;20068;-81
2021/04/17 05:25:43;;;;;;;14.77;9.50;;;4.90;99.90;;;;;;5059637;28;20045;-83
2021/04/17 05:28:11;;;;;;;16.30;9.32;;;4.90;99.90;;;;;;5060127;28;20091;-82
2021/04/17 05:30:38;;;;;;;18.13;9.32;;;5.00;99.90;;;;;;5058717;28;20111;-80
2021/04/17 05:33:05;;;;;;;12.48;8.88;;;5.00;99.90;;;;;;5057446;28;20505;-80
2021/04/17 05:35:31;;;;;;;13.82;9.18;;;5.10;99.90;;;;;;5057608;28;20072;-80
2021/04/17 05:37:58;;;;;;;17.42;9.35;;;5.10;99.90;;;;;;5054217;28;20096;-78
2021/04/17 05:40:25;;;;;;;14.80;9.23;;;5.10;99.90;;;;;;5047913;28;20497;-80
2021/04/17 05:42:51;;;;;;;12.65;9.52;;;5.20;99.90;;;;;;5048125;28;20076;-81
2021/04/17 05:45:18;;;;;;;15.73;9.18;;;5.30;99.90;;;;;;5047365;28;20133;-80
2021/04/17 05:47:44;;;;;;;15.85;9.63;;;5.30;99.90;;;;;;5049151;28;20118;-80
2021/04/17 05:50:11;;;;;;;13.45;8.82;;;5.40;99.90;;;;;;5058807;28;20052;-80
2021/04/17 05:52:37;;;;;;;14.77;8.88;;;5.40;99.90;;;;;;5051992;28;20521;-79
2021/04/17 05:55:05;;;;;;;14.30;8.40;;;5.70;99.90;;;;;;5042476;28;20090;-78
2021/04/17 05:57:32;;;;;;;13.60;8.75;;;6.20;99.90;;;;;;5042986;28;20132;-79
2021/04/17 05:59:59;;;;;;;12.45;8.25;;;6.80;99.90;;;;;;5042408;28;20149;-79
2021/04/17 06:02:25;;;;;;;15.85;8.73;;;7.60;99.90;;;;;;5042960;28;20160;-79
2021/04/17 06:04:51;;;;;;;13.60;8.68;;;8.10;99.90;;;;;;5048910;28;20136;-80
2021/04/17 06:07:18;;;;;;;12.35;8.18;;;8.60;99.90;;;;;;5054851;28;20049;-80
2021/04/17 06:09:44;;;;;;;13.65;8.15;;;9.00;99.90;;;;;;5055337;28;20140;-78
2021/04/17 06:12:11;;;;;;;15.77;8.13;;;9.40;99.90;;;;;;5059563;28;20522;-78
2021/04/17 06:14:39;;;;;;;13.40;7.95;;;9.90;99.90;;;;;;5052669;28;20068;-80
2021/04/17 06:17:06;;;;;;;11.90;7.97;;;10.20;99.90;;;;;;5053172;28;20053;-79
2021/04/17 06:19:32;;;;;;;13.40;8.60;;;9.90;99.90;;;;;;5055252;28;20085;-80
2021/04/17 06:21:59;;;;;;;13.70;9.30;;;9.70;99.90;;;;;;5055894;28;20076;-80
2021/04/17 06:24:25;;;;;;;11.38;7.90;;;9.70;99.90;;;;;;5057915;28;20128;-80
2021/04/17 06:26:52;;;;;;;12.82;8.32;;;10.10;99.90;;;;;;5062849;28;20084;-81
2021/04/17 06:29:18;;;;;;;15.18;8.75;;;10.50;99.90;;;;;;5066973;28;20052;-81
2021/04/17 06:31:45;;;;;;;12.40;8.02;;;11.20;99.90;;;;;;5060870;28;20135;-80
2021/04/17 06:34:11;;;;;;;11.45;7.80;;;11.70;99.90;;;;;;5054195;28;20198;-81
2021/04/17 06:36:38;;;;;;;13.82;8.35;;;11.90;99.90;;;;;;5055553;28;20087;-81
2021/04/17 06:39:07;;;;;;;13.93;8.15;;;12.30;99.90;;;;;;5057892;28;20136;-81
2021/04/17 06:41:34;;;;;;;11.68;8.23;;;12.20;99.90;;;;;;5056353;28;20154;-79
2021/04/17 06:44:02;;;;;;;13.27;7.88;;;12.70;99.90;;;;;;5059640;28;20062;-80
2021/04/17 06:46:32;;;;;;;12.48;7.60;;;12.90;99.90;;;;;;5059998;28;20053;-81
2021/04/17 06:49:01;;;;;;;13.82;8.65;;;12.90;99.90;;;;;;5058601;28;20116;-78
2021/04/17 06:51:28;;;;;;;13.27;9.20;;;13.40;99.90;;;;;;5058884;28;20136;-82
2021/04/17 06:53:56;;;;;;;12.25;7.80;;;13.30;99.90;;;;;;5059527;28;20060;-82
2021/04/17 06:56:23;;;;;;;13.07;8.55;;;13.50;99.90;;;;;;5057761;28;20068;-80
2021/04/17 06:58:51;;;;;;;10.05;7.57;;;13.50;99.90;;;;;;5059292;28;20054;-80
2021/04/17 07:01:17;;;;;;;12.27;8.07;;;13.30;99.90;;;;;;5058567;28;20108;-80
2021/04/17 07:03:44;;;;;;;11.75;7.72;;;12.90;99.90;;;;;;5057259;28;20052;-80
2021/04/17 07:06:12;;;;;;;11.20;7.57;;;13.00;99.90;;;;;;5057203;28;20183;-80
2021/04/17 07:08:39;;;;;;;9.48;7.43;;;13.10;99.90;;;;;;5057639;28;20049;-80
2021/04/17 07:11:06;;;;;;;11.38;7.88;;;13.10;99.90;;;;;;5057227;28;20535;-81
2021/04/17 07:13:34;;;;;;;17.60;8.18;;;13.60;99.90;;;;;;5056270;28;20049;-81
2021/04/17 07:16:08;;;;;;;14.70;8.43;;;13.70;99.90;;;;;;5056521;28;20060;-82
2021/04/17 07:18:36;;;;;;;10.38;7.88;;;14.10;99.90;;;;;;5058409;28;20045;-80
2021/04/17 07:21:29;;;;;;;10.00;7.93;;;14.20;99.90;;;;;;5060595;28;20048;-80
2021/04/17 07:23:56;;;;;;;14.20;8.15;;;14.60;99.90;;;;;;5060059;28;20060;-80
2021/04/17 07:26:25;;;;;;;11.98;8.20;;;14.90;99.90;;;;;;5058301;28;20060;-79
2021/04/17 07:29:01;;;;;;;13.50;7.95;;;14.40;99.90;;;;;;5060617;28;20057;-79
2021/04/17 07:31:29;;;;;;;13.18;8.10;;;14.00;99.90;;;;;;5063378;28;20053;-79
2021/04/17 07:33:57;;;;;;;12.88;7.60;;;14.20;99.90;;;;;;5063275;28;20332;-79
2021/04/17 07:36:25;;;;;;;12.65;7.68;;;14.20;99.90;;;;;;5063263;28;20048;-79
2021/04/17 07:38:52;;;;;;;10.75;7.40;;;13.70;99.90;;;;;;5066183;28;20044;-81
2021/04/17 07:41:21;;;;;;;10.98;6.95;;;13.80;99.90;;;;;;5067035;28;20052;-80
2021/04/17 07:43:50;;;;;;;12.48;7.57;;;14.10;99.90;;;;;;5064736;28;20049;-82
2021/04/17 07:46:20;;;;;;;11.52;7.35;;;14.40;99.90;;;;;;5062643;28;20481;-81
2021/04/17 07:48:46;;;;;;;11.70;7.60;;;14.60;99.90;;;;;;5058756;28;20458;-78
2021/04/17 07:51:13;;;;;;;11.15;7.10;;;14.20;99.90;;;;;;5055334;28;20498;-77
2021/04/17 07:53:41;;;;;;;14.15;8.20;;;13.70;99.90;;;;;;5054867;28;20157;-79
2021/04/17 07:56:29;;;;;;;13.50;7.93;;;13.30;99.90;;;;;;5055619;28;20049;-77
2021/04/17 07:58:57;;;;;;;11.93;7.40;;;13.30;99.90;;;;;;5054557;28;20049;-79
2021/04/17 08:01:24;;;;;;;14.48;7.88;;;13.30;99.90;;;;;;5054466;28;20099;-79
2021/04/17 08:03:54;;;;;;;12.98;8.00;;;13.30;99.90;;;;;;5056962;28;20044;-81
2021/04/17 08:06:21;;;;;;;15.65;7.97;;;13.20;99.90;;;;;;5059002;28;20049;-80
2021/04/17 08:08:49;;;;;;;10.90;7.30;;;13.00;99.90;;;;;;5059888;28;20064;-80
2021/04/17 08:11:18;;;;;;;13.77;7.63;;;13.10;99.90;;;;;;5057738;28;20079;-81
2021/04/17 08:13:50;;;;;;;14.30;7.85;;;13.60;99.90;;;;;;5057817;28;20045;-80
2021/04/17 08:16:18;;;;;;;13.70;7.78;;;13.00;99.90;;;;;;5047425;28;20048;-77
2021/04/17 08:18:45;;;;;;;11.90;7.80;;;13.10;99.90;;;;;;5053961;28;20053;-78
2021/04/17 08:21:13;;;;;;;9.27;6.30;;;13.20;99.90;;;;;;5055258;28;20131;-79
2021/04/17 08:23:44;;;;;;;14.32;6.90;;;13.60;99.90;;;;;;5054267;28;20141;-76
2021/04/17 08:26:10;;;;;;;13.82;7.68;;;13.80;99.90;;;;;;5053362;28;20101;-75
2021/04/17 08:28:40;;;;;;;12.80;6.88;;;13.30;99.90;;;;;;5053658;28;20051;-78
2021/04/17 08:31:25;;;;;;;13.30;6.88;;;13.30;99.90;;;;;;5052968;28;20078;-78
2021/04/17 08:34:22;;;;;;;10.88;6.95;;;13.90;99.90;;;;;;5052763;28;20045;-77
2021/04/17 08:36:50;;;;;;;11.13;6.97;;;14.50;99.90;;;;;;4971783;28;20190;-78
2021/04/17 08:39:42;;;;;;;11.68;7.32;;;14.60;99.90;;;;;;5034896;28;20104;-78
2021/04/17 08:42:12;;;;;;;10.07;6.28;;;15.00;98.30;;;;;;5050367;28;20048;-78
2021/04/17 08:44:40;;;;;;;8.88;6.38;;;14.60;98.30;;;;;;5053189;28;20080;-80
2021/04/17 08:47:08;;;;;;;9.82;6.60;;;14.60;98.20;;;;;;5055007;28;20429;-78
2021/04/17 08:49:37;;;;;;;10.02;6.95;;;14.40;97.50;;;;;;5056194;28;20049;-79
2021/04/17 08:52:20;;;;;;;11.57;6.60;;;14.20;97.10;;;;;;5052340;28;20053;-78
2021/04/17 08:54:47;;;;;;;;;;;13.90;97.80;;;;;;5054372;28;20080;-78
2021/04/17 08:57:15;;;;;;;10.25;6.90;;;14.20;98.40;;;;;;5053118;28;19971;-78
2021/04/17 08:59:43;;;;;;;10.30;6.30;;;14.50;98.10;;;;;;5052564;28;20158;-77
2021/04/17 09:02:23;;;;;;;10.25;6.13;;;14.60;96.30;;;;;;5052930;28;20113;-77
2021/04/17 09:05:05;;;;;;;11.88;6.63;;;14.60;96.60;;;;;;5053075;28;20052;-76
2021/04/17 09:07:33;;;;;;;10.20;6.30;;;14.90;95.90;;;;;;5052985;28;20079;-79
2021/04/17 09:10:35;;;;;;;8.75;6.65;;;14.90;95.40;;;;;;5054017;28;20103;-77
2021/04/17 09:13:35;;;;;;;10.95;6.40;;;14.10;94.30;;;;;;5057285;28;20045;-79
2021/04/17 09:16:04;;;;;;;14.20;6.50;;;13.60;95.90;;;;;;5054152;28;20493;-78
2021/04/17 09:18:44;;;;;;;9.57;6.90;;;13.70;95.80;;;;;;5055395;28;20060;-78
2021/04/17 09:21:36;;;;;;;12.00;6.28;;;13.60;95.90;;;;;;5056659;28;20048;-78
2021/04/17 09:24:04;;;;;;;8.50;6.35;;;13.80;96.00;;;;;;5054212;28;20049;-78
2021/04/17 09:26:43;;;;;;;8.13;6.30;;;13.90;95.50;;;;;;5052539;28;20048;-78
2021/04/17 09:29:23;;;;;;;11.38;6.65;;;14.30;96.10;;;;;;5052525;28;20580;-79
2021/04/17 09:31:51;;;;;;;9.25;6.15;;;14.20;95.80;;;;;;5052592;28;20541;-78
2021/04/17 09:34:20;;;;;;;10.25;6.88;;;14.20;95.70;;;;;;5051280;28;20090;-79
2021/04/17 09:36:49;;;;;;;8.95;6.70;;;14.00;96.00;;;;;;5052077;28;20501;-74
2021/04/17 09:39:25;;;;;;;8.50;6.32;;;13.80;95.80;;;;;;5051314;28;20516;-76
2021/04/17 09:41:53;;;;;;;9.52;6.55;;;13.50;94.70;;;;;;5051588;28;20140;-78
2021/04/17 09:44:20;;;;;;;7.97;6.07;;;13.20;96.10;;;;;;5051238;28;20045;-77
2021/04/17 09:46:47;;;;;;;11.57;6.75;;;13.20;96.80;;;;;;5054163;28;20076;-78
2021/04/17 09:49:37;;;;;;;11.63;7.18;;;13.20;97.20;;;;;;5075213;22;20594;-78
2021/04/17 09:52:04;;;;;;;10.63;6.65;;;13.60;96.80;;;;;;5052152;28;20120;-79
2021/04/17 09:54:30;;;;;;;9.07;6.80;;;13.60;96.50;;;;;;5052055;28;20552;-77
2021/04/17 09:56:57;;;;;;;10.73;6.38;;;13.40;95.60;;;;;;5054128;28;20530;-77
2021/04/17 09:59:24;;;;;;;9.23;6.43;;;13.20;95.50;;;;;;5052145;28;20128;-78
2021/04/17 10:01:54;;;;;;;13.40;6.82;;;13.20;96.30;;;;;;5051426;28;20077;-77
2021/04/17 10:04:21;;;;;;;12.80;7.20;;;13.20;96.20;;;;;;5051393;28;20453;-77
2021/04/17 10:06:56;;;;;;;10.10;6.53;;;13.20;96.60;;;;;;5051148;28;20091;-78
2021/04/17 10:09:23;;;;;;;10.05;6.93;;;13.30;96.50;;;;;;5055123;28;20513;-79
2021/04/17 10:11:50;;;;;;;9.85;6.53;;;13.60;97.30;;;;;;5054442;28;20087;-77
2021/04/17 10:14:18;;;;;;;9.65;6.40;;;13.70;96.60;;;;;;5056712;28;20159;-78
2021/04/17 10:16:46;;;;;;;9.60;5.93;;;13.80;96.70;;;;;;5052501;28;20049;-79
2021/04/17 10:19:14;;;;;;;9.48;6.50;;;13.40;93.80;;;;;;5053218;28;20103;-79
2021/04/17 10:21:41;;;;;;;12.23;7.63;;;13.20;95.90;;;;;;5052190;28;20060;-79
2021/04/17 10:24:27;;;;;;;11.38;7.30;;;13.10;97.00;;;;;;5052318;28;20501;-79
2021/04/17 10:27:03;;;;;;;10.75;7.20;;;13.20;97.30;;;;;;5055005;28;20138;-78
2021/04/17 10:29:38;;;;;;;9.38;6.78;;;13.40;96.90;;;;;;5056969;28;20044;-79
2021/04/17 10:32:07;;;;;;;7.95;5.80;;;13.80;96.30;;;;;;5052005;28;20060;-77
2021/04/17 10:34:34;;;;;;;9.25;6.18;;;14.00;94.70;;;;;;5052322;28;20045;-78
2021/04/17 10:37:03;;;;;;;8.48;5.93;;;13.80;94.40;;;;;;5053247;28;20152;-78
2021/04/17 10:39:30;;;;;;;12.02;6.57;;;13.90;94.20;;;;;;5056150;28;20080;-79
2021/04/17 10:42:04;;;;;;;9.73;6.25;;;14.10;92.80;;;;;;5054692;28;20053;-79
2021/04/17 10:44:30;;;;;;;12.18;6.65;;;13.90;91.90;;;;;;5053941;28;20476;-78
2021/04/17 10:46:59;;;;;;;9.77;6.50;;;13.60;92.60;;;;;;5053898;28;20082;-80
2021/04/17 10:49:28;;;;;;;9.15;6.60;;;13.60;92.90;;;;;;5055452;28;20114;-79
2021/04/17 10:51:54;;;;;;;9.05;6.63;;;13.40;93.30;;;;;;5057033;28;20045;-79
2021/04/17 10:54:21;;;;;;;8.25;6.15;;;13.40;93.50;;;;;;5054709;28;20567;-78
2021/04/17 10:57:03;;;;;;;7.93;6.30;;;13.40;93.40;;;;;;5057266;28;20103;-79
2021/04/17 10:59:55;;;;;;;9.87;6.50;;;13.50;92.90;;;;;;5059781;28;20087;-79
2021/04/17 11:02:27;;;;;;;12.47;6.63;;;13.40;92.80;;;;;;5057357;28;20059;-78
2021/04/17 11:04:54;;;;;;;9.70;7.03;;;13.50;93.70;;;;;;5057793;28;20136;-77
2021/04/17 11:07:27;;;;;;;9.82;7.07;;;13.50;92.40;;;;;;5057782;28;20131;-79
2021/04/17 11:09:53;;;;;;;9.35;7.05;;;13.50;92.30;;;;;;5056879;28;20122;-76
2021/04/17 11:12:26;;;;;;;10.93;7.18;;;13.60;93.40;;;;;;5057463;28;20187;-75
2021/04/17 11:14:52;;;;;;;9.23;7.03;;;13.50;94.40;;;;;;5057647;28;20072;-78
2021/04/17 11:17:19;;;;;;;10.38;6.93;;;13.70;94.00;;;;;;5057749;28;20134;-78
2021/04/17 11:19:46;;;;;;;9.90;7.18;;;13.60;93.80;;;;;;5061056;28;20065;-79
2021/04/17 11:22:14;;;;;;;10.40;7.03;;;13.40;94.50;;;;;;5059490;28;20055;-76
2021/04/17 11:24:43;;;;;;;12.93;7.20;;;13.40;93.30;;;;;;5060099;28;20048;-79
2021/04/17 11:27:09;;;;;;;9.93;7.10;;;13.40;93.30;;;;;;5059034;28;20048;-77
2021/04/17 11:29:38;;;;;;;9.02;6.45;;;13.40;92.60;;;;;;5058301;28;20052;-77
2021/04/17 11:32:05;;;;;;;9.40;6.65;;;13.40;93.00;;;;;;5056934;28;20489;-77
2021/04/17 11:34:32;;;;;;;8.65;6.32;;;13.50;93.40;;;;;;5059023;28;20088;-78
2021/04/17 11:36:58;;;;;;;11.13;7.10;;;13.80;92.80;;;;;;5059115;28;20059;-78
2021/04/17 11:39:24;;;;;;;11.80;7.40;;;13.80;92.60;;;;;;5058532;28;20095;-77
2021/04/17 11:41:51;;;;;;;9.30;7.22;;;14.00;93.40;;;;;;5061441;28;20049;-77
2021/04/17 11:44:17;;;;;;;12.73;7.18;;;14.10;91.80;;;;;;5062287;28;20129;-79
2021/04/17 11:46:44;;;;;;;10.10;7.35;;;14.00;92.40;;;;;;5066289;28;20072;-78
2021/04/17 11:49:11;;;;;;;10.85;6.85;;;14.10;92.00;;;;;;5062999;28;20108;-78
2021/04/17 11:51:37;;;;;;;8.65;6.47;;;14.20;93.20;;;;;;5060508;28;20059;-78
2021/04/17 11:54:04;;;;;;;11.48;6.88;;;14.60;94.40;;;;;;5058855;28;20136;-76
2021/04/17 11:56:30;;;;;;;11.55;7.40;;;14.90;94.00;;;;;;5058751;28;20556;-78
2021/04/17 11:58:57;;;;;;;14.00;7.00;;;15.00;93.80;;;;;;5063719;28;20060;-78
2021/04/17 12:01:23;;;;;;;13.13;7.60;;;15.10;92.90;;;;;;5061363;28;20089;-79
2021/04/17 12:03:50;;;;;;;13.05;7.40;;;15.30;92.90;;;;;;5060311;28;20076;-79
2021/04/17 12:06:17;;;;;;;10.57;6.97;;;15.10;90.30;;;;;;5055719;28;20091;-80
2021/04/17 12:08:44;;;;;;;10.82;8.07;;;14.70;90.00;;;;;;5055337;28;20049;-78
2021/04/17 12:11:10;;;;;;;12.52;8.68;;;14.30;90.90;;;;;;5054190;28;20049;-78
2021/04/17 12:13:36;;;;;;;9.85;8.35;;;13.80;91.30;;;;;;5039946;28;20172;-79
2021/04/17 12:16:04;;;;;;;10.57;8.02;;;13.70;92.20;;;;;;5049703;28;20615;-78
2021/04/17 12:18:30;;;;;;;10.52;8.65;;;13.70;91.60;;;;;;5034704;28;20080;-78
2021/04/17 12:20:57;;;;;;;12.90;9.40;;;13.60;91.60;;;;;;5033875;28;20076;-78
2021/04/17 12:23:24;;;;;;;11.40;7.53;;;13.60;92.40;;;;;;5034314;28;20080;-79
2021/04/17 12:25:50;;;;;;;11.27;7.40;;;13.50;91.90;;;;;;5034269;28;20117;-78
2021/04/17 12:28:18;;;;;;;13.88;8.43;;;13.20;92.40;;;;;;5033518;28;20144;-79
2021/04/17 12:30:45;;;;;;;10.02;7.75;;;13.20;92.80;;;;;;5033449;28;20080;-79
2021/04/17 12:33:12;;;;;;;9.68;7.28;;;13.20;93.20;;;;;;5033057;28;20085;-78
2021/04/17 12:35:40;;;;;;;13.00;7.90;;;13.00;93.60;;;;;;5033261;28;20088;-78
2021/04/17 12:38:08;;;;;;;10.93;7.93;;;12.90;94.00;;;;;;5032885;28;20091;-77
2021/04/17 12:40:35;;;;;;;10.50;7.60;;;12.90;93.90;;;;;;5034177;28;20124;-78
2021/04/17 12:43:04;;;;;;;8.63;7.70;;;13.10;94.30;;;;;;5031409;28;20065;-78
2021/04/17 12:45:31;;;;;;;10.65;8.35;;;13.40;93.80;;;;;;5033652;28;20514;-78
2021/04/17 12:47:57;;;;;;;10.73;7.68;;;13.40;93.30;;;;;;5033824;28;20099;-78
2021/04/17 12:50:24;;;;;;;10.10;8.00;;;13.50;93.80;;;;;;5034151;28;20140;-78